sensor_id;sensor_type;location;lat;lon;timestamp;P1;durP1;ratioP1;P2;durP2;ratioP2
4132;SDS011;2080;51.038;7.008;2022-09-16T00:00:44;589.40;;;532.90;;
4132;SDS011;2080;51.038;7.008;2022-09-16T00:03:10;510.53;;;456.17;;
4132;SDS011;2080;51.038;7.008;2022-09-16T00:05:42;633.63;;;575.37;;
4132;SDS011;2080;51.038;7.008;2022-09-16T00:08:09;519.83;;;467.23;;
4132;SDS011;2080;51.038;7.008;2022-09-16T00:10:35;423.70;;;288.23;;
4132;SDS011;2080;51.038;7.008;2022-09-16T00:13:03;457.43;;;366.53;;
4132;SDS011;2080;51.038;7.008;2022-09-16T00:15:29;555.30;;;500.50;;
4132;SDS011;2080;51.038;7.008;2022-09-16T00:17:57;406.00;;;243.47;;
4132;SDS011;2080;51.038;7.008;2022-09-16T00:20:25;431.10;;;292.67;;
4132;SDS011;2080;51.038;7.008;2022-09-16T00:22:51;449.57;;;317.97;;
4132;SDS011;2080;51.038;7.008;2022-09-16T00:25:16;766.50;;;699.40;;
4132;SDS011;2080;51.038;7.008;2022-09-16T00:27:46;583.40;;;525.87;;
4132;SDS011;2080;51.038;7.008;2022-09-16T00:30:12;577.93;;;518.43;;
4132;SDS011;2080;51.038;7.008;2022-09-16T00:32:37;389.60;;;212.77;;
4132;SDS011;2080;51.038;7.008;2022-09-16T00:35:05;564.73;;;508.50;;
4132;SDS011;2080;51.038;7.008;2022-09-16T00:37:31;535.70;;;481.27;;
4132;SDS011;2080;51.038;7.008;2022-09-16T00:39:57;434.67;;;370.20;;
4132;SDS011;2080;51.038;7.008;2022-09-16T00:42:23;640.60;;;580.00;;
4132;SDS011;2080;51.038;7.008;2022-09-16T00:47:29;452.97;;;346.67;;
4132;SDS011;2080;51.038;7.008;2022-09-16T00:50:03;580.63;;;524.63;;
4132;SDS011;2080;51.038;7.008;2022-09-16T00:52:32;619.30;;;561.80;;
4132;SDS011;2080;51.038;7.008;2022-09-16T00:55:02;537.73;;;483.80;;
4132;SDS011;2080;51.038;7.008;2022-09-16T00:57:30;476.77;;;413.00;;
4132;SDS011;2080;51.038;7.008;2022-09-16T00:59:56;399.60;;;247.50;;
4132;SDS011;2080;51.038;7.008;2022-09-16T01:02:22;413.63;;;273.40;;
4132;SDS011;2080;51.038;7.008;2022-09-16T01:04:53;446.77;;;382.23;;
4132;SDS011;2080;51.038;7.008;2022-09-16T01:07:32;394.83;;;238.17;;
4132;SDS011;2080;51.038;7.008;2022-09-16T01:10:02;376.33;;;204.67;;
4132;SDS011;2080;51.038;7.008;2022-09-16T01:12:28;347.67;;;147.43;;
4132;SDS011;2080;51.038;7.008;2022-09-16T01:14:56;318.10;;;92.13;;
4132;SDS011;2080;51.038;7.008;2022-09-16T01:36:07;375.40;;;200.27;;
4132;SDS011;2080;51.038;7.008;2022-09-16T01:44:07;349.13;;;155.47;;
4132;SDS011;2080;51.038;7.008;2022-09-16T01:54:55;339.50;;;129.93;;
4132;SDS011;2080;51.038;7.008;2022-09-16T01:57:33;338.33;;;130.60;;
4132;SDS011;2080;51.038;7.008;2022-09-16T02:05:36;348.57;;;147.70;;
4132;SDS011;2080;51.038;7.008;2022-09-16T02:08:10;347.80;;;137.50;;
4132;SDS011;2080;51.038;7.008;2022-09-16T02:10:43;359.27;;;150.27;;
4132;SDS011;2080;51.038;7.008;2022-09-16T02:13:48;339.50;;;132.27;;
4132;SDS011;2080;51.038;7.008;2022-09-16T02:16:12;335.20;;;90.10;;
4132;SDS011;2080;51.038;7.008;2022-09-16T02:18:42;299.13;;;86.37;;
4132;SDS011;2080;51.038;7.008;2022-09-16T02:21:13;313.20;;;115.10;;
4132;SDS011;2080;51.038;7.008;2022-09-16T02:23:47;307.10;;;79.23;;
4132;SDS011;2080;51.038;7.008;2022-09-16T02:26:17;327.53;;;118.47;;
4132;SDS011;2080;51.038;7.008;2022-09-16T02:28:48;340.57;;;160.07;;
4132;SDS011;2080;51.038;7.008;2022-09-16T02:31:17;340.40;;;126.07;;
4132;SDS011;2080;51.038;7.008;2022-09-16T02:33:51;356.93;;;167.07;;
4132;SDS011;2080;51.038;7.008;2022-09-16T02:36:24;367.73;;;188.67;;
4132;SDS011;2080;51.038;7.008;2022-09-16T02:39:02;372.67;;;219.20;;
4132;SDS011;2080;51.038;7.008;2022-09-16T02:41:33;345.27;;;153.63;;
4132;SDS011;2080;51.038;7.008;2022-09-16T02:44:05;340.33;;;154.43;;
4132;SDS011;2080;51.038;7.008;2022-09-16T02:49:33;325.70;;;98.17;;
4132;SDS011;2080;51.038;7.008;2022-09-16T02:57:31;403.77;;;191.17;;
4132;SDS011;2080;51.038;7.008;2022-09-16T03:00:00;348.97;;;139.77;;
4132;SDS011;2080;51.038;7.008;2022-09-16T03:02:28;392.00;;;240.67;;
4132;SDS011;2080;51.038;7.008;2022-09-16T03:04:55;298.77;;;67.83;;
4132;SDS011;2080;51.038;7.008;2022-09-16T03:07:21;330.77;;;95.53;;
4132;SDS011;2080;51.038;7.008;2022-09-16T03:09:48;335.60;;;127.60;;
4132;SDS011;2080;51.038;7.008;2022-09-16T03:15:16;397.90;;;247.87;;
4132;SDS011;2080;51.038;7.008;2022-09-16T03:34:22;334.80;;;113.17;;
4132;SDS011;2080;51.038;7.008;2022-09-16T03:37:16;342.63;;;103.53;;
4132;SDS011;2080;51.038;7.008;2022-09-16T03:39:41;309.30;;;95.77;;
4132;SDS011;2080;51.038;7.008;2022-09-16T03:42:14;364.33;;;174.67;;
4132;SDS011;2080;51.038;7.008;2022-09-16T03:44:41;334.57;;;104.60;;
4132;SDS011;2080;51.038;7.008;2022-09-16T03:47:09;322.10;;;109.20;;
4132;SDS011;2080;51.038;7.008;2022-09-16T03:49:37;341.10;;;126.47;;
4132;SDS011;2080;51.038;7.008;2022-09-16T03:52:03;344.93;;;154.83;;
4132;SDS011;2080;51.038;7.008;2022-09-16T03:54:32;374.90;;;202.10;;
4132;SDS011;2080;51.038;7.008;2022-09-16T03:57:03;322.97;;;115.53;;
4132;SDS011;2080;51.038;7.008;2022-09-16T03:59:31;393.00;;;256.93;;
4132;SDS011;2080;51.038;7.008;2022-09-16T04:01:59;358.60;;;176.93;;
4132;SDS011;2080;51.038;7.008;2022-09-16T04:04:27;356.53;;;154.50;;
4132;SDS011;2080;51.038;7.008;2022-09-16T04:06:53;374.47;;;174.07;;
4132;SDS011;2080;51.038;7.008;2022-09-16T04:09:18;341.63;;;138.83;;
4132;SDS011;2080;51.038;7.008;2022-09-16T04:11:44;310.53;;;96.80;;
4132;SDS011;2080;51.038;7.008;2022-09-16T04:14:11;330.00;;;131.23;;
4132;SDS011;2080;51.038;7.008;2022-09-16T04:16:41;333.10;;;138.80;;
4132;SDS011;2080;51.038;7.008;2022-09-16T04:19:08;422.73;;;306.53;;
4132;SDS011;2080;51.038;7.008;2022-09-16T04:21:35;411.23;;;295.37;;
4132;SDS011;2080;51.038;7.008;2022-09-16T04:24:01;352.47;;;162.40;;
4132;SDS011;2080;51.038;7.008;2022-09-16T04:26:29;376.97;;;201.83;;
4132;SDS011;2080;51.038;7.008;2022-09-16T04:28:57;379.00;;;216.13;;
4132;SDS011;2080;51.038;7.008;2022-09-16T04:31:22;356.87;;;155.80;;
4132;SDS011;2080;51.038;7.008;2022-09-16T04:33:50;399.53;;;276.43;;
4132;SDS011;2080;51.038;7.008;2022-09-16T04:36:16;384.43;;;235.33;;
4132;SDS011;2080;51.038;7.008;2022-09-16T04:38:44;365.07;;;137.73;;
4132;SDS011;2080;51.038;7.008;2022-09-16T04:41:18;355.47;;;179.03;;
4132;SDS011;2080;51.038;7.008;2022-09-16T04:43:48;379.10;;;233.57;;
4132;SDS011;2080;51.038;7.008;2022-09-16T04:46:19;383.07;;;237.73;;
4132;SDS011;2080;51.038;7.008;2022-09-16T04:48:50;423.73;;;337.40;;
4132;SDS011;2080;51.038;7.008;2022-09-16T04:51:17;357.73;;;184.50;;
4132;SDS011;2080;51.038;7.008;2022-09-16T04:53:52;328.57;;;119.20;;
4132;SDS011;2080;51.038;7.008;2022-09-16T04:56:25;407.27;;;280.93;;
4132;SDS011;2080;51.038;7.008;2022-09-16T04:58:57;436.40;;;344.43;;
4132;SDS011;2080;51.038;7.008;2022-09-16T05:01:27;354.63;;;154.93;;
4132;SDS011;2080;51.038;7.008;2022-09-16T05:03:58;418.83;;;295.37;;
4132;SDS011;2080;51.038;7.008;2022-09-16T05:06:26;432.57;;;309.47;;
4132;SDS011;2080;51.038;7.008;2022-09-16T05:08:53;377.60;;;215.40;;
4132;SDS011;2080;51.038;7.008;2022-09-16T05:11:21;334.63;;;123.37;;
4132;SDS011;2080;51.038;7.008;2022-09-16T05:13:50;338.27;;;123.67;;
4132;SDS011;2080;51.038;7.008;2022-09-16T05:16:19;330.37;;;104.97;;
4132;SDS011;2080;51.038;7.008;2022-09-16T05:18:48;336.13;;;121.73;;
4132;SDS011;2080;51.038;7.008;2022-09-16T05:21:16;354.17;;;172.87;;
4132;SDS011;2080;51.038;7.008;2022-09-16T05:23:43;375.30;;;167.43;;
4132;SDS011;2080;51.038;7.008;2022-09-16T05:26:12;343.53;;;128.43;;
4132;SDS011;2080;51.038;7.008;2022-09-16T05:28:39;313.70;;;76.50;;
4132;SDS011;2080;51.038;7.008;2022-09-16T05:31:15;319.23;;;92.00;;
4132;SDS011;2080;51.038;7.008;2022-09-16T05:33:51;322.87;;;78.87;;
4132;SDS011;2080;51.038;7.008;2022-09-16T05:36:37;342.73;;;162.10;;
4132;SDS011;2080;51.038;7.008;2022-09-16T05:39:04;347.77;;;179.87;;
4132;SDS011;2080;51.038;7.008;2022-09-16T05:41:30;300.03;;;72.97;;
4132;SDS011;2080;51.038;7.008;2022-09-16T05:43:59;320.13;;;107.97;;
4132;SDS011;2080;51.038;7.008;2022-09-16T05:46:25;320.00;;;115.27;;
4132;SDS011;2080;51.038;7.008;2022-09-16T05:48:54;313.43;;;87.33;;
4132;SDS011;2080;51.038;7.008;2022-09-16T05:51:21;347.83;;;141.83;;
4132;SDS011;2080;51.038;7.008;2022-09-16T05:53:50;387.23;;;210.17;;
4132;SDS011;2080;51.038;7.008;2022-09-16T05:56:20;336.57;;;92.47;;
4132;SDS011;2080;51.038;7.008;2022-09-16T05:58:50;321.63;;;99.03;;
4132;SDS011;2080;51.038;7.008;2022-09-16T06:01:18;337.30;;;124.47;;
4132;SDS011;2080;51.038;7.008;2022-09-16T06:03:49;361.03;;;161.17;;
4132;SDS011;2080;51.038;7.008;2022-09-16T06:08:50;304.90;;;77.23;;
4132;SDS011;2080;51.038;7.008;2022-09-16T06:11:17;323.50;;;80.00;;
4132;SDS011;2080;51.038;7.008;2022-09-16T06:13:43;363.07;;;159.23;;
4132;SDS011;2080;51.038;7.008;2022-09-16T06:16:11;337.23;;;101.57;;
4132;SDS011;2080;51.038;7.008;2022-09-16T06:18:38;373.33;;;204.63;;
4132;SDS011;2080;51.038;7.008;2022-09-16T06:21:07;317.37;;;74.07;;
4132;SDS011;2080;51.038;7.008;2022-09-16T06:23:36;362.50;;;191.23;;
4132;SDS011;2080;51.038;7.008;2022-09-16T06:26:04;497.50;;;445.67;;
4132;SDS011;2080;51.038;7.008;2022-09-16T06:28:38;410.60;;;277.40;;
4132;SDS011;2080;51.038;7.008;2022-09-16T06:33:33;550.70;;;494.17;;
4132;SDS011;2080;51.038;7.008;2022-09-16T06:36:05;627.00;;;568.87;;
4132;SDS011;2080;51.038;7.008;2022-09-16T06:38:38;367.70;;;143.77;;
4132;SDS011;2080;51.038;7.008;2022-09-16T06:41:08;451.70;;;329.13;;
4132;SDS011;2080;51.038;7.008;2022-09-16T06:43:35;630.67;;;570.40;;
4132;SDS011;2080;51.038;7.008;2022-09-16T06:46:02;656.83;;;595.07;;
4132;SDS011;2080;51.038;7.008;2022-09-16T06:48:31;583.50;;;525.57;;
4132;SDS011;2080;51.038;7.008;2022-09-16T06:51:03;387.37;;;161.50;;
4132;SDS011;2080;51.038;7.008;2022-09-16T06:53:30;379.07;;;145.20;;
4132;SDS011;2080;51.038;7.008;2022-09-16T06:56:03;428.53;;;270.67;;
4132;SDS011;2080;51.038;7.008;2022-09-16T06:58:34;330.67;;;94.43;;
4132;SDS011;2080;51.038;7.008;2022-09-16T07:01:04;337.83;;;72.63;;
4132;SDS011;2080;51.038;7.008;2022-09-16T07:03:32;335.03;;;84.47;;
4132;SDS011;2080;51.038;7.008;2022-09-16T07:06:00;328.17;;;89.30;;
4132;SDS011;2080;51.038;7.008;2022-09-16T07:08:32;366.07;;;139.40;;
4132;SDS011;2080;51.038;7.008;2022-09-16T07:11:00;347.93;;;101.27;;
4132;SDS011;2080;51.038;7.008;2022-09-16T07:13:30;336.63;;;115.27;;
4132;SDS011;2080;51.038;7.008;2022-09-16T07:16:02;382.00;;;198.90;;
4132;SDS011;2080;51.038;7.008;2022-09-16T07:18:30;423.53;;;314.03;;
4132;SDS011;2080;51.038;7.008;2022-09-16T07:20:59;395.20;;;201.67;;
4132;SDS011;2080;51.038;7.008;2022-09-16T07:23:34;363.30;;;145.27;;
4132;SDS011;2080;51.038;7.008;2022-09-16T07:26:07;346.53;;;146.77;;
4132;SDS011;2080;51.038;7.008;2022-09-16T07:28:41;320.90;;;79.63;;
4132;SDS011;2080;51.038;7.008;2022-09-16T07:31:11;321.43;;;87.30;;
4132;SDS011;2080;51.038;7.008;2022-09-16T07:33:41;352.20;;;148.13;;
4132;SDS011;2080;51.038;7.008;2022-09-16T07:36:13;409.37;;;230.23;;
4132;SDS011;2080;51.038;7.008;2022-09-16T07:38:40;423.10;;;266.87;;
4132;SDS011;2080;51.038;7.008;2022-09-16T07:41:09;496.07;;;441.87;;
4132;SDS011;2080;51.038;7.008;2022-09-16T07:43:37;422.70;;;279.43;;
4132;SDS011;2080;51.038;7.008;2022-09-16T07:46:04;387.67;;;178.93;;
4132;SDS011;2080;51.038;7.008;2022-09-16T07:48:31;587.90;;;529.73;;
4132;SDS011;2080;51.038;7.008;2022-09-16T07:51:00;508.97;;;454.23;;
4132;SDS011;2080;51.038;7.008;2022-09-16T07:53:30;435.40;;;298.60;;
4132;SDS011;2080;51.038;7.008;2022-09-16T07:56:06;461.77;;;371.43;;
4132;SDS011;2080;51.038;7.008;2022-09-16T07:58:34;608.17;;;548.70;;
4132;SDS011;2080;51.038;7.008;2022-09-16T08:01:02;567.23;;;512.07;;
4132;SDS011;2080;51.038;7.008;2022-09-16T08:03:32;658.37;;;595.67;;
4132;SDS011;2080;51.038;7.008;2022-09-16T08:06:01;612.83;;;554.93;;
4132;SDS011;2080;51.038;7.008;2022-09-16T08:08:29;647.47;;;587.37;;
4132;SDS011;2080;51.038;7.008;2022-09-16T08:10:55;751.13;;;684.97;;
4132;SDS011;2080;51.038;7.008;2022-09-16T08:13:24;449.77;;;344.83;;
4132;SDS011;2080;51.038;7.008;2022-09-16T08:15:51;793.77;;;724.00;;
4132;SDS011;2080;51.038;7.008;2022-09-16T08:18:20;890.57;;;812.67;;
4132;SDS011;2080;51.038;7.008;2022-09-16T08:20:45;680.37;;;618.27;;
4132;SDS011;2080;51.038;7.008;2022-09-16T08:23:11;606.97;;;550.03;;
4132;SDS011;2080;51.038;7.008;2022-09-16T08:25:38;559.03;;;503.50;;
4132;SDS011;2080;51.038;7.008;2022-09-16T08:28:03;565.93;;;508.93;;
4132;SDS011;2080;51.038;7.008;2022-09-16T08:30:29;656.13;;;595.97;;
4132;SDS011;2080;51.038;7.008;2022-09-16T08:32:59;694.57;;;631.67;;
4132;SDS011;2080;51.038;7.008;2022-09-16T08:35:24;751.57;;;685.23;;
4132;SDS011;2080;51.038;7.008;2022-09-16T08:37:50;500.87;;;439.03;;
4132;SDS011;2080;51.038;7.008;2022-09-16T08:40:19;913.43;;;835.23;;
4132;SDS011;2080;51.038;7.008;2022-09-16T08:45:40;900.87;;;824.47;;
4132;SDS011;2080;51.038;7.008;2022-09-16T08:48:16;756.67;;;688.00;;
4132;SDS011;2080;51.038;7.008;2022-09-16T08:50:43;570.50;;;512.63;;
4132;SDS011;2080;51.038;7.008;2022-09-16T08:53:16;423.53;;;246.83;;
4132;SDS011;2080;51.038;7.008;2022-09-16T08:55:55;436.60;;;283.37;;
4132;SDS011;2080;51.038;7.008;2022-09-16T08:58:29;375.43;;;132.83;;
4132;SDS011;2080;51.038;7.008;2022-09-16T09:01:04;349.07;;;110.03;;
4132;SDS011;2080;51.038;7.008;2022-09-16T09:03:40;376.80;;;119.50;;
4132;SDS011;2080;51.038;7.008;2022-09-16T09:11:49;349.30;;;117.10;;
4132;SDS011;2080;51.038;7.008;2022-09-16T09:14:37;370.23;;;137.47;;
4132;SDS011;2080;51.038;7.008;2022-09-16T09:17:17;345.57;;;87.67;;
4132;SDS011;2080;51.038;7.008;2022-09-16T09:25:36;402.33;;;207.63;;
4132;SDS011;2080;51.038;7.008;2022-09-16T09:28:17;335.17;;;86.53;;
4132;SDS011;2080;51.038;7.008;2022-09-16T09:31:16;378.83;;;191.97;;
4132;SDS011;2080;51.038;7.008;2022-09-16T09:39:42;325.93;;;88.93;;
4132;SDS011;2080;51.038;7.008;2022-09-16T09:42:19;387.93;;;172.63;;
4132;SDS011;2080;51.038;7.008;2022-09-16T09:45:00;367.73;;;127.33;;
4132;SDS011;2080;51.038;7.008;2022-09-16T09:50:08;355.87;;;146.27;;
4132;SDS011;2080;51.038;7.008;2022-09-16T09:52:43;395.97;;;221.17;;
4132;SDS011;2080;51.038;7.008;2022-09-16T09:55:16;345.73;;;87.47;;
4132;SDS011;2080;51.038;7.008;2022-09-16T10:00:29;382.00;;;196.97;;
4132;SDS011;2080;51.038;7.008;2022-09-16T10:03:00;374.90;;;143.13;;
4132;SDS011;2080;51.038;7.008;2022-09-16T10:05:30;330.00;;;109.00;;
4132;SDS011;2080;51.038;7.008;2022-09-16T10:08:01;379.90;;;206.13;;
4132;SDS011;2080;51.038;7.008;2022-09-16T10:10:39;376.17;;;185.37;;
4132;SDS011;2080;51.038;7.008;2022-09-16T10:13:12;394.73;;;197.87;;
4132;SDS011;2080;51.038;7.008;2022-09-16T10:15:38;352.60;;;145.23;;
4132;SDS011;2080;51.038;7.008;2022-09-16T10:18:11;394.53;;;181.47;;
4132;SDS011;2080;51.038;7.008;2022-09-16T10:23:36;302.40;;;37.37;;
4132;SDS011;2080;51.038;7.008;2022-09-16T10:31:23;299.67;;;33.00;;
4132;SDS011;2080;51.038;7.008;2022-09-16T10:33:50;340.10;;;88.90;;
4132;SDS011;2080;51.038;7.008;2022-09-16T10:36:20;389.83;;;169.20;;
4132;SDS011;2080;51.038;7.008;2022-09-16T10:38:53;307.67;;;48.13;;
4132;SDS011;2080;51.038;7.008;2022-09-16T10:41:40;312.17;;;48.20;;
4132;SDS011;2080;51.038;7.008;2022-09-16T10:44:26;375.77;;;145.47;;
4132;SDS011;2080;51.038;7.008;2022-09-16T10:46:57;340.97;;;100.07;;
4132;SDS011;2080;51.038;7.008;2022-09-16T10:49:37;366.33;;;130.07;;
4132;SDS011;2080;51.038;7.008;2022-09-16T10:52:24;371.73;;;148.37;;
4132;SDS011;2080;51.038;7.008;2022-09-16T10:54:53;368.93;;;97.47;;
4132;SDS011;2080;51.038;7.008;2022-09-16T10:59:56;329.13;;;57.97;;
4132;SDS011;2080;51.038;7.008;2022-09-16T11:03:06;646.57;;;587.03;;
4132;SDS011;2080;51.038;7.008;2022-09-16T11:11:16;421.53;;;254.77;;
4132;SDS011;2080;51.038;7.008;2022-09-16T11:13:58;498.17;;;427.10;;
4132;SDS011;2080;51.038;7.008;2022-09-16T11:27:44;380.90;;;143.47;;
4132;SDS011;2080;51.038;7.008;2022-09-16T11:30:25;326.20;;;84.33;;
4132;SDS011;2080;51.038;7.008;2022-09-16T11:33:13;394.53;;;187.67;;
4132;SDS011;2080;51.038;7.008;2022-09-16T11:36:10;444.60;;;358.80;;
4132;SDS011;2080;51.038;7.008;2022-09-16T11:41:44;327.30;;;82.40;;
4132;SDS011;2080;51.038;7.008;2022-09-16T11:47:04;687.17;;;623.57;;
4132;SDS011;2080;51.038;7.008;2022-09-16T11:50:38;446.20;;;339.40;;
4132;SDS011;2080;51.038;7.008;2022-09-16T12:01:34;474.17;;;406.77;;
4132;SDS011;2080;51.038;7.008;2022-09-16T12:07:15;535.00;;;478.77;;
4132;SDS011;2080;51.038;7.008;2022-09-16T12:09:38;681.60;;;619.20;;
4132;SDS011;2080;51.038;7.008;2022-09-16T12:12:12;721.80;;;654.20;;
4132;SDS011;2080;51.038;7.008;2022-09-16T12:14:51;871.47;;;797.03;;
4132;SDS011;2080;51.038;7.008;2022-09-16T12:17:28;492.10;;;415.57;;
4132;SDS011;2080;51.038;7.008;2022-09-16T12:22:36;389.50;;;173.20;;
4132;SDS011;2080;51.038;7.008;2022-09-16T12:25:18;348.90;;;103.50;;
4132;SDS011;2080;51.038;7.008;2022-09-16T12:27:50;513.67;;;417.70;;
4132;SDS011;2080;51.038;7.008;2022-09-16T12:30:20;364.83;;;164.70;;
4132;SDS011;2080;51.038;7.008;2022-09-16T12:35:30;511.53;;;457.90;;
4132;SDS011;2080;51.038;7.008;2022-09-16T12:38:04;384.87;;;224.47;;
4132;SDS011;2080;51.038;7.008;2022-09-16T12:54:20;402.77;;;287.80;;
4132;SDS011;2080;51.038;7.008;2022-09-16T13:00:12;442.77;;;374.50;;
4132;SDS011;2080;51.038;7.008;2022-09-16T13:05:38;402.23;;;285.57;;
4132;SDS011;2080;51.038;7.008;2022-09-16T13:08:05;424.70;;;276.83;;
4132;SDS011;2080;51.038;7.008;2022-09-16T13:10:43;420.03;;;309.70;;
4132;SDS011;2080;51.038;7.008;2022-09-16T13:13:15;577.63;;;521.40;;
4132;SDS011;2080;51.038;7.008;2022-09-16T13:15:53;462.37;;;394.07;;
4132;SDS011;2080;51.038;7.008;2022-09-16T13:18:21;506.80;;;352.87;;
4132;SDS011;2080;51.038;7.008;2022-09-16T13:20:58;347.93;;;153.47;;
4132;SDS011;2080;51.038;7.008;2022-09-16T13:23:29;403.07;;;288.10;;
4132;SDS011;2080;51.038;7.008;2022-09-16T13:33:45;383.37;;;227.73;;
4132;SDS011;2080;51.038;7.008;2022-09-16T13:38:48;383.47;;;201.70;;
4132;SDS011;2080;51.038;7.008;2022-09-16T13:41:54;384.53;;;200.67;;
4132;SDS011;2080;51.038;7.008;2022-09-16T13:49:33;374.83;;;186.90;;
4132;SDS011;2080;51.038;7.008;2022-09-16T13:52:07;331.37;;;106.27;;
4132;SDS011;2080;51.038;7.008;2022-09-16T13:54:55;390.67;;;227.13;;
4132;SDS011;2080;51.038;7.008;2022-09-16T13:57:36;376.77;;;162.43;;
4132;SDS011;2080;51.038;7.008;2022-09-16T14:13:00;415.40;;;235.37;;
4132;SDS011;2080;51.038;7.008;2022-09-16T14:15:38;327.17;;;82.70;;
4132;SDS011;2080;51.038;7.008;2022-09-16T14:18:10;345.50;;;108.00;;
4132;SDS011;2080;51.038;7.008;2022-09-16T14:20:38;403.40;;;223.83;;
4132;SDS011;2080;51.038;7.008;2022-09-16T14:23:15;363.73;;;117.87;;
4132;SDS011;2080;51.038;7.008;2022-09-16T14:25:47;339.03;;;102.97;;
4132;SDS011;2080;51.038;7.008;2022-09-16T14:28:20;342.03;;;118.10;;
4132;SDS011;2080;51.038;7.008;2022-09-16T14:33:31;438.50;;;370.70;;
4132;SDS011;2080;51.038;7.008;2022-09-16T14:36:07;309.93;;;53.83;;
4132;SDS011;2080;51.038;7.008;2022-09-16T14:44:06;496.40;;;442.73;;
4132;SDS011;2080;51.038;7.008;2022-09-16T14:46:40;349.80;;;111.00;;
4132;SDS011;2080;51.038;7.008;2022-09-16T14:49:11;425.87;;;302.50;;
4132;SDS011;2080;51.038;7.008;2022-09-16T14:51:38;323.20;;;92.93;;
4132;SDS011;2080;51.038;7.008;2022-09-16T14:54:15;395.13;;;245.33;;
4132;SDS011;2080;51.038;7.008;2022-09-16T14:56:52;351.20;;;128.17;;
4132;SDS011;2080;51.038;7.008;2022-09-16T14:59:23;351.10;;;140.47;;
4132;SDS011;2080;51.038;7.008;2022-09-16T15:01:55;357.57;;;181.20;;
4132;SDS011;2080;51.038;7.008;2022-09-16T15:04:28;356.53;;;147.47;;
4132;SDS011;2080;51.038;7.008;2022-09-16T15:06:59;347.97;;;126.37;;
4132;SDS011;2080;51.038;7.008;2022-09-16T15:12:34;338.13;;;103.20;;
4132;SDS011;2080;51.038;7.008;2022-09-16T15:15:22;332.23;;;95.57;;
4132;SDS011;2080;51.038;7.008;2022-09-16T15:17:53;426.90;;;270.83;;
4132;SDS011;2080;51.038;7.008;2022-09-16T15:20:31;424.07;;;278.97;;
4132;SDS011;2080;51.038;7.008;2022-09-16T15:23:04;348.03;;;115.83;;
4132;SDS011;2080;51.038;7.008;2022-09-16T15:25:34;411.47;;;256.50;;
4132;SDS011;2080;51.038;7.008;2022-09-16T15:28:03;423.53;;;326.87;;
4132;SDS011;2080;51.038;7.008;2022-09-16T15:30:33;511.93;;;278.30;;
4132;SDS011;2080;51.038;7.008;2022-09-16T15:33:01;453.83;;;371.80;;
4132;SDS011;2080;51.038;7.008;2022-09-16T15:35:27;453.93;;;366.77;;
4132;SDS011;2080;51.038;7.008;2022-09-16T15:37:57;435.70;;;372.43;;
4132;SDS011;2080;51.038;7.008;2022-09-16T15:40:36;387.93;;;188.90;;
4132;SDS011;2080;51.038;7.008;2022-09-16T15:45:58;350.13;;;136.60;;
4132;SDS011;2080;51.038;7.008;2022-09-16T15:48:27;432.33;;;288.17;;
4132;SDS011;2080;51.038;7.008;2022-09-16T15:51:02;353.03;;;149.97;;
4132;SDS011;2080;51.038;7.008;2022-09-16T16:01:13;424.07;;;306.47;;
4132;SDS011;2080;51.038;7.008;2022-09-16T16:06:43;436.73;;;345.77;;
4132;SDS011;2080;51.038;7.008;2022-09-16T16:11:51;415.03;;;307.93;;
4132;SDS011;2080;51.038;7.008;2022-09-16T16:14:40;315.13;;;74.40;;
4132;SDS011;2080;51.038;7.008;2022-09-16T16:17:13;350.60;;;82.30;;
4132;SDS011;2080;51.038;7.008;2022-09-16T16:19:45;378.87;;;135.33;;
4132;SDS011;2080;51.038;7.008;2022-09-16T16:22:12;354.23;;;107.00;;
4132;SDS011;2080;51.038;7.008;2022-09-16T16:24:38;344.70;;;81.57;;
4132;SDS011;2080;51.038;7.008;2022-09-16T16:27:04;425.93;;;330.13;;
4132;SDS011;2080;51.038;7.008;2022-09-16T16:29:30;311.13;;;57.00;;
4132;SDS011;2080;51.038;7.008;2022-09-16T16:31:56;372.33;;;136.73;;
4132;SDS011;2080;51.038;7.008;2022-09-16T16:34:43;335.27;;;90.40;;
4132;SDS011;2080;51.038;7.008;2022-09-16T16:37:11;314.40;;;37.83;;
4132;SDS011;2080;51.038;7.008;2022-09-16T16:39:43;329.83;;;46.17;;
4132;SDS011;2080;51.038;7.008;2022-09-16T16:42:14;332.73;;;50.80;;
4132;SDS011;2080;51.038;7.008;2022-09-16T16:44:40;317.63;;;56.00;;
4132;SDS011;2080;51.038;7.008;2022-09-16T16:47:06;347.37;;;80.57;;
4132;SDS011;2080;51.038;7.008;2022-09-16T16:49:32;324.20;;;56.43;;
4132;SDS011;2080;51.038;7.008;2022-09-16T16:51:58;328.40;;;51.40;;
4132;SDS011;2080;51.038;7.008;2022-09-16T16:54:24;327.90;;;45.40;;
4132;SDS011;2080;51.038;7.008;2022-09-16T16:56:50;331.53;;;46.03;;
4132;SDS011;2080;51.038;7.008;2022-09-16T16:59:18;319.50;;;47.70;;
4132;SDS011;2080;51.038;7.008;2022-09-16T17:01:46;339.57;;;98.63;;
4132;SDS011;2080;51.038;7.008;2022-09-16T17:04:14;385.57;;;158.27;;
4132;SDS011;2080;51.038;7.008;2022-09-16T17:06:40;333.47;;;50.50;;
4132;SDS011;2080;51.038;7.008;2022-09-16T17:09:06;349.10;;;80.77;;
4132;SDS011;2080;51.038;7.008;2022-09-16T17:11:33;365.80;;;108.93;;
4132;SDS011;2080;51.038;7.008;2022-09-16T17:14:00;378.43;;;142.63;;
4132;SDS011;2080;51.038;7.008;2022-09-16T17:16:27;369.93;;;119.73;;
4132;SDS011;2080;51.038;7.008;2022-09-16T17:18:54;355.20;;;134.70;;
4132;SDS011;2080;51.038;7.008;2022-09-16T17:21:26;358.27;;;118.50;;
4132;SDS011;2080;51.038;7.008;2022-09-16T17:23:54;386.17;;;183.67;;
4132;SDS011;2080;51.038;7.008;2022-09-16T17:26:19;385.67;;;136.13;;
4132;SDS011;2080;51.038;7.008;2022-09-16T17:28:46;372.47;;;137.43;;
4132;SDS011;2080;51.038;7.008;2022-09-16T17:31:34;365.93;;;147.73;;
4132;SDS011;2080;51.038;7.008;2022-09-16T17:34:01;342.33;;;86.80;;
4132;SDS011;2080;51.038;7.008;2022-09-16T17:36:29;403.83;;;217.13;;
4132;SDS011;2080;51.038;7.008;2022-09-16T17:38:57;478.37;;;416.90;;
4132;SDS011;2080;51.038;7.008;2022-09-16T17:41:27;360.80;;;129.40;;
4132;SDS011;2080;51.038;7.008;2022-09-16T17:43:55;407.53;;;225.53;;
4132;SDS011;2080;51.038;7.008;2022-09-16T17:46:21;402.27;;;253.43;;
4132;SDS011;2080;51.038;7.008;2022-09-16T17:48:51;444.63;;;354.40;;
4132;SDS011;2080;51.038;7.008;2022-09-16T17:51:21;349.50;;;120.97;;
4132;SDS011;2080;51.038;7.008;2022-09-16T17:53:49;429.03;;;311.43;;
4132;SDS011;2080;51.038;7.008;2022-09-16T17:56:16;453.63;;;356.60;;
4132;SDS011;2080;51.038;7.008;2022-09-16T17:58:46;437.47;;;355.13;;
4132;SDS011;2080;51.038;7.008;2022-09-16T18:03:43;374.77;;;191.37;;
4132;SDS011;2080;51.038;7.008;2022-09-16T18:06:15;343.20;;;141.43;;
4132;SDS011;2080;51.038;7.008;2022-09-16T18:08:45;362.57;;;177.47;;
4132;SDS011;2080;51.038;7.008;2022-09-16T18:11:13;375.93;;;208.00;;
4132;SDS011;2080;51.038;7.008;2022-09-16T18:13:42;464.87;;;386.77;;
4132;SDS011;2080;51.038;7.008;2022-09-16T18:16:16;421.00;;;321.60;;
4132;SDS011;2080;51.038;7.008;2022-09-16T18:18:43;358.83;;;179.50;;
4132;SDS011;2080;51.038;7.008;2022-09-16T18:21:10;415.17;;;314.40;;
4132;SDS011;2080;51.038;7.008;2022-09-16T18:23:41;402.27;;;244.43;;
4132;SDS011;2080;51.038;7.008;2022-09-16T18:26:08;525.30;;;471.47;;
4132;SDS011;2080;51.038;7.008;2022-09-16T18:28:35;421.87;;;314.80;;
4132;SDS011;2080;51.038;7.008;2022-09-16T18:31:03;405.53;;;264.27;;
4132;SDS011;2080;51.038;7.008;2022-09-16T18:33:35;345.87;;;156.53;;